sensor_id;sensor_type;location;lat;lon;timestamp;P1;durP1;ratioP1;P2;durP2;ratioP2
78716;SDS011;68045;50.042;14.432;2024-03-08T00:02:31;41.97;;;17.40;;
78716;SDS011;68045;50.042;14.432;2024-03-08T00:06:32;34.45;;;15.82;;
78716;SDS011;68045;50.042;14.432;2024-03-08T00:10:33;39.15;;;16.98;;
78716;SDS011;68045;50.042;14.432;2024-03-08T00:14:35;42.00;;;17.42;;
78716;SDS011;68045;50.042;14.432;2024-03-08T00:18:37;34.30;;;16.23;;
78716;SDS011;68045;50.042;14.432;2024-03-08T00:22:38;40.42;;;17.95;;
78716;SDS011;68045;50.042;14.432;2024-03-08T00:26:41;39.58;;;17.77;;
78716;SDS011;68045;50.042;14.432;2024-03-08T00:30:43;35.97;;;16.23;;
78716;SDS011;68045;50.042;14.432;2024-03-08T00:34:45;41.58;;;17.80;;
78716;SDS011;68045;50.042;14.432;2024-03-08T00:38:46;37.20;;;17.05;;
78716;SDS011;68045;50.042;14.432;2024-03-08T00:42:48;39.00;;;16.50;;
78716;SDS011;68045;50.042;14.432;2024-03-08T00:46:50;37.95;;;17.10;;
78716;SDS011;68045;50.042;14.432;2024-03-08T00:50:52;38.33;;;16.70;;
78716;SDS011;68045;50.042;14.432;2024-03-08T00:54:54;38.80;;;17.23;;
78716;SDS011;68045;50.042;14.432;2024-03-08T00:58:55;39.75;;;17.30;;
78716;SDS011;68045;50.042;14.432;2024-03-08T01:02:56;40.13;;;18.25;;
78716;SDS011;68045;50.042;14.432;2024-03-08T01:06:57;37.80;;;17.52;;
78716;SDS011;68045;50.042;14.432;2024-03-08T01:10:59;41.53;;;19.45;;
78716;SDS011;68045;50.042;14.432;2024-03-08T01:15:01;37.05;;;16.05;;
78716;SDS011;68045;50.042;14.432;2024-03-08T01:19:03;38.53;;;17.67;;
78716;SDS011;68045;50.042;14.432;2024-03-08T01:23:04;39.53;;;16.40;;
78716;SDS011;68045;50.042;14.432;2024-03-08T01:27:07;32.90;;;16.38;;
78716;SDS011;68045;50.042;14.432;2024-03-08T01:31:10;39.40;;;16.40;;
78716;SDS011;68045;50.042;14.432;2024-03-08T01:35:11;38.33;;;16.98;;
78716;SDS011;68045;50.042;14.432;2024-03-08T01:39:12;38.75;;;17.67;;
78716;SDS011;68045;50.042;14.432;2024-03-08T01:43:26;41.13;;;17.38;;
78716;SDS011;68045;50.042;14.432;2024-03-08T01:47:31;34.85;;;15.98;;
78716;SDS011;68045;50.042;14.432;2024-03-08T01:51:33;35.63;;;16.27;;
78716;SDS011;68045;50.042;14.432;2024-03-08T01:55:35;41.92;;;16.77;;
78716;SDS011;68045;50.042;14.432;2024-03-08T01:59:37;34.60;;;16.30;;
78716;SDS011;68045;50.042;14.432;2024-03-08T02:03:38;39.53;;;17.10;;
78716;SDS011;68045;50.042;14.432;2024-03-08T02:07:42;39.15;;;15.60;;
78716;SDS011;68045;50.042;14.432;2024-03-08T02:11:44;32.42;;;15.63;;
78716;SDS011;68045;50.042;14.432;2024-03-08T02:16:04;38.85;;;17.08;;
78716;SDS011;68045;50.042;14.432;2024-03-08T02:20:08;39.45;;;18.17;;
78716;SDS011;68045;50.042;14.432;2024-03-08T02:24:11;36.92;;;17.25;;
78716;SDS011;68045;50.042;14.432;2024-03-08T02:28:12;40.88;;;16.98;;
78716;SDS011;68045;50.042;14.432;2024-03-08T02:32:14;38.83;;;16.38;;
78716;SDS011;68045;50.042;14.432;2024-03-08T02:36:16;34.03;;;15.77;;
78716;SDS011;68045;50.042;14.432;2024-03-08T02:40:17;45.03;;;18.10;;
78716;SDS011;68045;50.042;14.432;2024-03-08T02:44:18;42.38;;;18.35;;
78716;SDS011;68045;50.042;14.432;2024-03-08T02:48:22;37.25;;;18.15;;
78716;SDS011;68045;50.042;14.432;2024-03-08T02:52:23;35.90;;;17.70;;
78716;SDS011;68045;50.042;14.432;2024-03-08T02:56:24;40.33;;;15.40;;
78716;SDS011;68045;50.042;14.432;2024-03-08T03:00:25;37.05;;;17.00;;
78716;SDS011;68045;50.042;14.432;2024-03-08T03:04:28;38.78;;;18.67;;
78716;SDS011;68045;50.042;14.432;2024-03-08T03:08:29;32.65;;;16.08;;
78716;SDS011;68045;50.042;14.432;2024-03-08T03:12:31;44.97;;;18.58;;
78716;SDS011;68045;50.042;14.432;2024-03-08T03:16:32;38.42;;;18.08;;
78716;SDS011;68045;50.042;14.432;2024-03-08T03:20:33;35.88;;;17.40;;
78716;SDS011;68045;50.042;14.432;2024-03-08T03:24:37;43.08;;;17.25;;
78716;SDS011;68045;50.042;14.432;2024-03-08T03:28:42;49.40;;;19.63;;
78716;SDS011;68045;50.042;14.432;2024-03-08T03:32:44;40.45;;;17.75;;
78716;SDS011;68045;50.042;14.432;2024-03-08T03:36:48;46.45;;;20.00;;
78716;SDS011;68045;50.042;14.432;2024-03-08T03:40:50;41.92;;;18.17;;
78716;SDS011;68045;50.042;14.432;2024-03-08T03:44:54;43.20;;;17.60;;
78716;SDS011;68045;50.042;14.432;2024-03-08T03:48:55;39.88;;;16.77;;
78716;SDS011;68045;50.042;14.432;2024-03-08T03:52:56;39.08;;;18.20;;
78716;SDS011;68045;50.042;14.432;2024-03-08T03:56:58;42.17;;;16.98;;
78716;SDS011;68045;50.042;14.432;2024-03-08T04:01:01;31.52;;;16.10;;
78716;SDS011;68045;50.042;14.432;2024-03-08T04:05:02;39.83;;;16.88;;
78716;SDS011;68045;50.042;14.432;2024-03-08T04:09:04;34.83;;;16.73;;
78716;SDS011;68045;50.042;14.432;2024-03-08T04:13:05;42.10;;;19.83;;
78716;SDS011;68045;50.042;14.432;2024-03-08T04:17:06;38.13;;;16.70;;
78716;SDS011;68045;50.042;14.432;2024-03-08T04:21:09;44.50;;;18.35;;
78716;SDS011;68045;50.042;14.432;2024-03-08T04:25:10;44.13;;;18.08;;
78716;SDS011;68045;50.042;14.432;2024-03-08T04:29:12;32.97;;;15.43;;
78716;SDS011;68045;50.042;14.432;2024-03-08T04:33:15;38.40;;;17.05;;
78716;SDS011;68045;50.042;14.432;2024-03-08T04:37:18;44.28;;;17.20;;
78716;SDS011;68045;50.042;14.432;2024-03-08T04:41:25;42.63;;;16.85;;
78716;SDS011;68045;50.042;14.432;2024-03-08T04:45:26;42.42;;;16.20;;
78716;SDS011;68045;50.042;14.432;2024-03-08T04:49:28;44.40;;;17.17;;
78716;SDS011;68045;50.042;14.432;2024-03-08T04:53:30;35.13;;;15.85;;
78716;SDS011;68045;50.042;14.432;2024-03-08T05:01:34;29.83;;;12.68;;
78716;SDS011;68045;50.042;14.432;2024-03-08T05:05:38;33.92;;;15.57;;
78716;SDS011;68045;50.042;14.432;2024-03-08T05:09:39;36.50;;;16.83;;
78716;SDS011;68045;50.042;14.432;2024-03-08T05:13:42;34.97;;;16.33;;
78716;SDS011;68045;50.042;14.432;2024-03-08T05:17:44;43.15;;;16.48;;
78716;SDS011;68045;50.042;14.432;2024-03-08T05:21:45;31.00;;;15.60;;
78716;SDS011;68045;50.042;14.432;2024-03-08T05:25:48;29.38;;;14.05;;
78716;SDS011;68045;50.042;14.432;2024-03-08T05:29:50;39.85;;;17.10;;
78716;SDS011;68045;50.042;14.432;2024-03-08T05:33:51;35.22;;;16.08;;
78716;SDS011;68045;50.042;14.432;2024-03-08T05:37:52;34.25;;;15.23;;
78716;SDS011;68045;50.042;14.432;2024-03-08T05:41:53;43.50;;;17.33;;
78716;SDS011;68045;50.042;14.432;2024-03-08T05:45:56;25.17;;;12.65;;
78716;SDS011;68045;50.042;14.432;2024-03-08T05:49:56;31.88;;;13.73;;
78716;SDS011;68045;50.042;14.432;2024-03-08T05:53:57;45.67;;;16.25;;
78716;SDS011;68045;50.042;14.432;2024-03-08T05:57:58;38.25;;;16.55;;
78716;SDS011;68045;50.042;14.432;2024-03-08T06:02:01;43.20;;;17.70;;
78716;SDS011;68045;50.042;14.432;2024-03-08T06:06:05;37.70;;;16.75;;
78716;SDS011;68045;50.042;14.432;2024-03-08T06:10:09;47.75;;;19.73;;
78716;SDS011;68045;50.042;14.432;2024-03-08T06:14:12;37.85;;;15.60;;
78716;SDS011;68045;50.042;14.432;2024-03-08T06:18:13;40.55;;;18.80;;
78716;SDS011;68045;50.042;14.432;2024-03-08T06:22:15;39.25;;;17.05;;
78716;SDS011;68045;50.042;14.432;2024-03-08T06:26:17;46.80;;;17.70;;
78716;SDS011;68045;50.042;14.432;2024-03-08T06:30:18;45.78;;;18.80;;
78716;SDS011;68045;50.042;14.432;2024-03-08T06:34:21;41.15;;;18.73;;
78716;SDS011;68045;50.042;14.432;2024-03-08T06:38:22;40.90;;;17.75;;
78716;SDS011;68045;50.042;14.432;2024-03-08T06:42:26;40.47;;;17.98;;
78716;SDS011;68045;50.042;14.432;2024-03-08T06:46:29;45.45;;;18.80;;
78716;SDS011;68045;50.042;14.432;2024-03-08T06:50:30;42.42;;;18.13;;
78716;SDS011;68045;50.042;14.432;2024-03-08T06:54:34;36.17;;;16.65;;
78716;SDS011;68045;50.042;14.432;2024-03-08T06:58:37;42.72;;;18.63;;
78716;SDS011;68045;50.042;14.432;2024-03-08T07:02:40;38.45;;;17.98;;
78716;SDS011;68045;50.042;14.432;2024-03-08T07:06:42;46.22;;;17.70;;
78716;SDS011;68045;50.042;14.432;2024-03-08T07:10:43;37.40;;;16.67;;
78716;SDS011;68045;50.042;14.432;2024-03-08T07:14:45;40.67;;;16.35;;
78716;SDS011;68045;50.042;14.432;2024-03-08T07:18:47;46.30;;;18.50;;
78716;SDS011;68045;50.042;14.432;2024-03-08T07:22:48;35.15;;;16.63;;
78716;SDS011;68045;50.042;14.432;2024-03-08T07:26:52;40.47;;;17.15;;
78716;SDS011;68045;50.042;14.432;2024-03-08T07:30:53;43.67;;;20.25;;
78716;SDS011;68045;50.042;14.432;2024-03-08T07:35:02;36.42;;;16.85;;
78716;SDS011;68045;50.042;14.432;2024-03-08T07:39:04;35.92;;;16.00;;
78716;SDS011;68045;50.042;14.432;2024-03-08T07:43:10;36.80;;;17.20;;
78716;SDS011;68045;50.042;14.432;2024-03-08T07:47:14;36.90;;;16.95;;
78716;SDS011;68045;50.042;14.432;2024-03-08T07:51:18;36.42;;;15.88;;
78716;SDS011;68045;50.042;14.432;2024-03-08T07:55:19;29.15;;;13.57;;
78716;SDS011;68045;50.042;14.432;2024-03-08T07:59:20;36.53;;;16.20;;
78716;SDS011;68045;50.042;14.432;2024-03-08T08:03:21;30.23;;;13.93;;
78716;SDS011;68045;50.042;14.432;2024-03-08T08:07:23;36.38;;;16.38;;
78716;SDS011;68045;50.042;14.432;2024-03-08T08:11:27;33.17;;;15.13;;
78716;SDS011;68045;50.042;14.432;2024-03-08T08:15:29;30.65;;;16.20;;
78716;SDS011;68045;50.042;14.432;2024-03-08T08:19:31;33.72;;;16.48;;
78716;SDS011;68045;50.042;14.432;2024-03-08T08:23:32;35.15;;;16.65;;
78716;SDS011;68045;50.042;14.432;2024-03-08T08:27:33;34.15;;;17.45;;
78716;SDS011;68045;50.042;14.432;2024-03-08T08:31:36;32.88;;;17.10;;
78716;SDS011;68045;50.042;14.432;2024-03-08T08:35:37;32.28;;;18.65;;
78716;SDS011;68045;50.042;14.432;2024-03-08T08:39:38;31.15;;;16.83;;
78716;SDS011;68045;50.042;14.432;2024-03-08T08:43:40;32.35;;;17.52;;
78716;SDS011;68045;50.042;14.432;2024-03-08T08:47:44;32.28;;;16.55;;
78716;SDS011;68045;50.042;14.432;2024-03-08T08:51:49;29.25;;;16.67;;
78716;SDS011;68045;50.042;14.432;2024-03-08T08:55:51;27.73;;;16.45;;
78716;SDS011;68045;50.042;14.432;2024-03-08T08:59:53;31.27;;;17.23;;
78716;SDS011;68045;50.042;14.432;2024-03-08T09:03:56;36.22;;;18.85;;
78716;SDS011;68045;50.042;14.432;2024-03-08T09:07:57;34.67;;;18.25;;
78716;SDS011;68045;50.042;14.432;2024-03-08T09:11:59;34.55;;;19.90;;
78716;SDS011;68045;50.042;14.432;2024-03-08T09:16:01;32.65;;;19.00;;
78716;SDS011;68045;50.042;14.432;2024-03-08T09:20:06;32.70;;;19.50;;
78716;SDS011;68045;50.042;14.432;2024-03-08T09:24:09;30.60;;;19.80;;
78716;SDS011;68045;50.042;14.432;2024-03-08T09:28:10;34.40;;;20.50;;
78716;SDS011;68045;50.042;14.432;2024-03-08T09:32:12;35.35;;;19.70;;
78716;SDS011;68045;50.042;14.432;2024-03-08T09:36:13;31.50;;;19.42;;
78716;SDS011;68045;50.042;14.432;2024-03-08T09:40:14;33.67;;;20.67;;
78716;SDS011;68045;50.042;14.432;2024-03-08T09:44:16;28.85;;;19.05;;
78716;SDS011;68045;50.042;14.432;2024-03-08T09:48:17;26.95;;;17.98;;
78716;SDS011;68045;50.042;14.432;2024-03-08T09:52:19;31.20;;;19.02;;
78716;SDS011;68045;50.042;14.432;2024-03-08T09:56:22;31.70;;;19.33;;
78716;SDS011;68045;50.042;14.432;2024-03-08T10:00:24;31.65;;;18.77;;
78716;SDS011;68045;50.042;14.432;2024-03-08T10:04:25;32.85;;;18.65;;
78716;SDS011;68045;50.042;14.432;2024-03-08T10:08:29;30.80;;;18.55;;
78716;SDS011;68045;50.042;14.432;2024-03-08T10:12:30;29.35;;;19.40;;
78716;SDS011;68045;50.042;14.432;2024-03-08T10:16:31;29.92;;;19.80;;
78716;SDS011;68045;50.042;14.432;2024-03-08T10:20:33;27.50;;;17.88;;
78716;SDS011;68045;50.042;14.432;2024-03-08T10:24:34;31.77;;;19.50;;
78716;SDS011;68045;50.042;14.432;2024-03-08T10:28:35;31.13;;;17.70;;
78716;SDS011;68045;50.042;14.432;2024-03-08T10:32:38;28.75;;;17.40;;
78716;SDS011;68045;50.042;14.432;2024-03-08T10:40:42;29.88;;;17.25;;
78716;SDS011;68045;50.042;14.432;2024-03-08T10:44:48;31.38;;;16.45;;
78716;SDS011;68045;50.042;14.432;2024-03-08T10:49:01;31.10;;;18.67;;
78716;SDS011;68045;50.042;14.432;2024-03-08T10:53:08;28.65;;;17.15;;
78716;SDS011;68045;50.042;14.432;2024-03-08T10:57:12;27.42;;;16.80;;
78716;SDS011;68045;50.042;14.432;2024-03-08T11:01:16;29.85;;;17.02;;
78716;SDS011;68045;50.042;14.432;2024-03-08T11:05:36;30.65;;;17.23;;
78716;SDS011;68045;50.042;14.432;2024-03-08T11:09:41;27.45;;;17.30;;
78716;SDS011;68045;50.042;14.432;2024-03-08T11:13:45;29.30;;;17.85;;
78716;SDS011;68045;50.042;14.432;2024-03-08T11:17:48;27.17;;;18.50;;
78716;SDS011;68045;50.042;14.432;2024-03-08T11:22:02;27.35;;;19.23;;
78716;SDS011;68045;50.042;14.432;2024-03-08T11:26:05;28.10;;;17.83;;
78716;SDS011;68045;50.042;14.432;2024-03-08T11:30:18;24.95;;;17.35;;
78716;SDS011;68045;50.042;14.432;2024-03-08T11:34:25;24.73;;;18.15;;
78716;SDS011;68045;50.042;14.432;2024-03-08T11:38:26;28.38;;;18.52;;
78716;SDS011;68045;50.042;14.432;2024-03-08T11:42:29;20.77;;;13.65;;
78716;SDS011;68045;50.042;14.432;2024-03-08T11:46:31;15.40;;;10.95;;
78716;SDS011;68045;50.042;14.432;2024-03-08T11:50:32;19.45;;;12.98;;
78716;SDS011;68045;50.042;14.432;2024-03-08T11:54:33;20.63;;;12.55;;
78716;SDS011;68045;50.042;14.432;2024-03-08T11:58:37;15.40;;;9.50;;
78716;SDS011;68045;50.042;14.432;2024-03-08T12:02:39;12.38;;;8.88;;
78716;SDS011;68045;50.042;14.432;2024-03-08T12:06:43;12.48;;;8.18;;
78716;SDS011;68045;50.042;14.432;2024-03-08T12:10:48;12.82;;;7.53;;
78716;SDS011;68045;50.042;14.432;2024-03-08T12:14:49;14.07;;;7.90;;
78716;SDS011;68045;50.042;14.432;2024-03-08T12:18:52;16.25;;;8.85;;
78716;SDS011;68045;50.042;14.432;2024-03-08T12:22:55;14.30;;;8.43;;
78716;SDS011;68045;50.042;14.432;2024-03-08T12:26:57;13.93;;;8.68;;
78716;SDS011;68045;50.042;14.432;2024-03-08T12:30:58;15.63;;;8.23;;
78716;SDS011;68045;50.042;14.432;2024-03-08T12:35:01;17.90;;;9.23;;
78716;SDS011;68045;50.042;14.432;2024-03-08T12:39:05;14.00;;;7.22;;
78716;SDS011;68045;50.042;14.432;2024-03-08T12:43:10;10.57;;;6.05;;
78716;SDS011;68045;50.042;14.432;2024-03-08T12:47:11;12.35;;;6.15;;
78716;SDS011;68045;50.042;14.432;2024-03-08T12:51:15;12.85;;;6.85;;
78716;SDS011;68045;50.042;14.432;2024-03-08T12:55:17;13.98;;;7.07;;
78716;SDS011;68045;50.042;14.432;2024-03-08T12:59:18;13.95;;;7.38;;
78716;SDS011;68045;50.042;14.432;2024-03-08T13:03:19;11.73;;;6.18;;
78716;SDS011;68045;50.042;14.432;2024-03-08T13:07:21;12.98;;;6.22;;
78716;SDS011;68045;50.042;14.432;2024-03-08T13:11:24;13.40;;;6.15;;
78716;SDS011;68045;50.042;14.432;2024-03-08T13:15:26;12.15;;;5.95;;
78716;SDS011;68045;50.042;14.432;2024-03-08T13:19:27;12.13;;;6.82;;
78716;SDS011;68045;50.042;14.432;2024-03-08T13:23:28;11.48;;;6.30;;
78716;SDS011;68045;50.042;14.432;2024-03-08T13:27:29;11.60;;;6.43;;
78716;SDS011;68045;50.042;14.432;2024-03-08T13:31:32;11.73;;;6.43;;
78716;SDS011;68045;50.042;14.432;2024-03-08T13:35:34;12.88;;;6.30;;
78716;SDS011;68045;50.042;14.432;2024-03-08T13:39:35;10.48;;;6.10;;
78716;SDS011;68045;50.042;14.432;2024-03-08T13:47:46;11.40;;;6.13;;
78716;SDS011;68045;50.042;14.432;2024-03-08T13:51:47;11.95;;;6.43;;
78716;SDS011;68045;50.042;14.432;2024-03-08T13:55:50;14.18;;;7.10;;
78716;SDS011;68045;50.042;14.432;2024-03-08T13:59:50;18.77;;;6.90;;
78716;SDS011;68045;50.042;14.432;2024-03-08T14:03:52;14.30;;;7.07;;
78716;SDS011;68045;50.042;14.432;2024-03-08T14:07:54;14.43;;;7.35;;
78716;SDS011;68045;50.042;14.432;2024-03-08T14:15:58;12.02;;;6.32;;
78716;SDS011;68045;50.042;14.432;2024-03-08T14:19:58;14.07;;;6.57;;
78716;SDS011;68045;50.042;14.432;2024-03-08T14:23:59;14.52;;;7.47;;
78716;SDS011;68045;50.042;14.432;2024-03-08T14:28:01;11.48;;;6.88;;
78716;SDS011;68045;50.042;14.432;2024-03-08T14:32:05;13.25;;;7.55;;
78716;SDS011;68045;50.042;14.432;2024-03-08T14:36:07;13.48;;;6.72;;
78716;SDS011;68045;50.042;14.432;2024-03-08T14:40:08;15.48;;;7.50;;
78716;SDS011;68045;50.042;14.432;2024-03-08T14:44:10;16.70;;;7.82;;
78716;SDS011;68045;50.042;14.432;2024-03-08T14:48:10;12.18;;;7.07;;
78716;SDS011;68045;50.042;14.432;2024-03-08T14:52:12;14.00;;;6.82;;
78716;SDS011;68045;50.042;14.432;2024-03-08T14:56:30;12.25;;;6.53;;
78716;SDS011;68045;50.042;14.432;2024-03-08T15:08:41;12.38;;;5.57;;
78716;SDS011;68045;50.042;14.432;2024-03-08T15:12:44;9.40;;;5.63;;
78716;SDS011;68045;50.042;14.432;2024-03-08T15:16:47;12.30;;;6.10;;
78716;SDS011;68045;50.042;14.432;2024-03-08T15:20:50;12.50;;;6.30;;
78716;SDS011;68045;50.042;14.432;2024-03-08T15:24:52;11.93;;;6.43;;
78716;SDS011;68045;50.042;14.432;2024-03-08T15:28:54;14.88;;;6.95;;
78716;SDS011;68045;50.042;14.432;2024-03-08T15:32:56;17.95;;;7.93;;
78716;SDS011;68045;50.042;14.432;2024-03-08T15:36:58;9.77;;;5.28;;
78716;SDS011;68045;50.042;14.432;2024-03-08T15:41:03;11.98;;;4.95;;
78716;SDS011;68045;50.042;14.432;2024-03-08T15:45:12;12.27;;;6.53;;
78716;SDS011;68045;50.042;14.432;2024-03-08T15:49:13;13.57;;;7.05;;
78716;SDS011;68045;50.042;14.432;2024-03-08T15:53:14;12.07;;;6.30;;
78716;SDS011;68045;50.042;14.432;2024-03-08T15:57:16;12.80;;;6.53;;
78716;SDS011;68045;50.042;14.432;2024-03-08T16:01:20;13.70;;;7.03;;
78716;SDS011;68045;50.042;14.432;2024-03-08T16:05:23;12.27;;;6.97;;
78716;SDS011;68045;50.042;14.432;2024-03-08T16:09:24;13.55;;;5.97;;
78716;SDS011;68045;50.042;14.432;2024-03-08T16:13:30;15.52;;;6.32;;
78716;SDS011;68045;50.042;14.432;2024-03-08T16:17:31;11.32;;;6.20;;
78716;SDS011;68045;50.042;14.432;2024-03-08T16:21:32;12.35;;;5.63;;
78716;SDS011;68045;50.042;14.432;2024-03-08T16:25:34;12.55;;;6.90;;
78716;SDS011;68045;50.042;14.432;2024-03-08T16:29:35;14.90;;;6.75;;
78716;SDS011;68045;50.042;14.432;2024-03-08T16:33:36;12.35;;;6.78;;
78716;SDS011;68045;50.042;14.432;2024-03-08T16:37:38;9.05;;;5.15;;
78716;SDS011;68045;50.042;14.432;2024-03-08T16:41:40;9.95;;;5.13;;
78716;SDS011;68045;50.042;14.432;2024-03-08T16:45:42;11.02;;;5.60;;
78716;SDS011;68045;50.042;14.432;2024-03-08T16:49:43;13.40;;;6.30;;
78716;SDS011;68045;50.042;14.432;2024-03-08T16:53:44;17.92;;;6.55;;
78716;SDS011;68045;50.042;14.432;2024-03-08T16:57:48;15.10;;;7.15;;
78716;SDS011;68045;50.042;14.432;2024-03-08T17:01:50;14.80;;;6.80;;
78716;SDS011;68045;50.042;14.432;2024-03-08T17:05:52;9.98;;;5.78;;
78716;SDS011;68045;50.042;14.432;2024-03-08T17:09:55;19.63;;;8.27;;
78716;SDS011;68045;50.042;14.432;2024-03-08T17:18:00;12.05;;;5.88;;
78716;SDS011;68045;50.042;14.432;2024-03-08T17:22:06;13.68;;;5.88;;
78716;SDS011;68045;50.042;14.432;2024-03-08T17:26:07;18.92;;;8.30;;
78716;SDS011;68045;50.042;14.432;2024-03-08T17:30:08;17.42;;;7.38;;
78716;SDS011;68045;50.042;14.432;2024-03-08T17:34:20;18.00;;;8.02;;
78716;SDS011;68045;50.042;14.432;2024-03-08T17:38:21;14.15;;;7.38;;
78716;SDS011;68045;50.042;14.432;2024-03-08T17:42:25;15.05;;;6.95;;
78716;SDS011;68045;50.042;14.432;2024-03-08T17:46:26;14.57;;;6.20;;
78716;SDS011;68045;50.042;14.432;2024-03-08T17:50:27;15.50;;;7.65;;
78716;SDS011;68045;50.042;14.432;2024-03-08T17:54:30;17.15;;;8.18;;
78716;SDS011;68045;50.042;14.432;2024-03-08T17:58:33;19.58;;;8.52;;
78716;SDS011;68045;50.042;14.432;2024-03-08T18:02:34;15.15;;;7.18;;
78716;SDS011;68045;50.042;14.432;2024-03-08T18:06:36;16.98;;;8.02;;
78716;SDS011;68045;50.042;14.432;2024-03-08T18:10:41;18.77;;;7.50;;
78716;SDS011;68045;50.042;14.432;2024-03-08T18:14:42;16.38;;;7.63;;
78716;SDS011;68045;50.042;14.432;2024-03-08T18:18:43;19.10;;;8.38;;
78716;SDS011;68045;50.042;14.432;2024-03-08T18:22:47;14.63;;;6.97;;
78716;SDS011;68045;50.042;14.432;2024-03-08T18:26:48;17.98;;;8.43;;
78716;SDS011;68045;50.042;14.432;2024-03-08T18:30:50;16.92;;;7.63;;
78716;SDS011;68045;50.042;14.432;2024-03-08T18:34:53;19.50;;;8.73;;
78716;SDS011;68045;50.042;14.432;2024-03-08T18:38:58;16.30;;;8.40;;
78716;SDS011;68045;50.042;14.432;2024-03-08T18:42:59;15.07;;;7.63;;
78716;SDS011;68045;50.042;14.432;2024-03-08T18:47:01;20.95;;;10.00;;
78716;SDS011;68045;50.042;14.432;2024-03-08T18:51:02;15.65;;;7.78;;
78716;SDS011;68045;50.042;14.432;2024-03-08T18:55:03;19.98;;;8.93;;
78716;SDS011;68045;50.042;14.432;2024-03-08T18:59:10;19.15;;;8.43;;
78716;SDS011;68045;50.042;14.432;2024-03-08T19:03:11;18.70;;;7.97;;
78716;SDS011;68045;50.042;14.432;2024-03-08T19:07:14;18.70;;;8.65;;
78716;SDS011;68045;50.042;14.432;2024-03-08T19:11:15;18.90;;;8.90;;
78716;SDS011;68045;50.042;14.432;2024-03-08T19:15:19;17.92;;;7.63;;
78716;SDS011;68045;50.042;14.432;2024-03-08T19:19:22;14.77;;;8.02;;
78716;SDS011;68045;50.042;14.432;2024-03-08T19:23:23;18.13;;;8.57;;
78716;SDS011;68045;50.042;14.432;2024-03-08T19:27:24;17.67;;;8.32;;
78716;SDS011;68045;50.042;14.432;2024-03-08T19:31:26;19.05;;;8.52;;
78716;SDS011;68045;50.042;14.432;2024-03-08T19:35:28;20.13;;;9.20;;
78716;SDS011;68045;50.042;14.432;2024-03-08T19:39:30;16.70;;;7.68;;
78716;SDS011;68045;50.042;14.432;2024-03-08T19:43:31;19.95;;;8.98;;
78716;SDS011;68045;50.042;14.432;2024-03-08T19:47:33;15.30;;;7.35;;
78716;SDS011;68045;50.042;14.432;2024-03-08T19:51:34;16.30;;;9.05;;
78716;SDS011;68045;50.042;14.432;2024-03-08T19:55:37;19.52;;;8.63;;
78716;SDS011;68045;50.042;14.432;2024-03-08T19:59:39;16.75;;;8.52;;
78716;SDS011;68045;50.042;14.432;2024-03-08T20:03:47;19.80;;;8.93;;
78716;SDS011;68045;50.042;14.432;2024-03-08T20:12:06;20.20;;;8.07;;
78716;SDS011;68045;50.042;14.432;2024-03-08T20:16:10;19.50;;;8.70;;
78716;SDS011;68045;50.042;14.432;2024-03-08T20:20:18;24.80;;;8.93;;
78716;SDS011;68045;50.042;14.432;2024-03-08T20:24:20;21.13;;;9.07;;
78716;SDS011;68045;50.042;14.432;2024-03-08T20:28:22;19.30;;;8.82;;
78716;SDS011;68045;50.042;14.432;2024-03-08T20:32:29;21.98;;;9.80;;
78716;SDS011;68045;50.042;14.432;2024-03-08T20:36:30;19.20;;;9.30;;
78716;SDS011;68045;50.042;14.432;2024-03-08T20:40:33;15.15;;;8.07;;
78716;SDS011;68045;50.042;14.432;2024-03-08T20:44:42;17.17;;;8.23;;
78716;SDS011;68045;50.042;14.432;2024-03-08T20:48:45;19.30;;;8.93;;
78716;SDS011;68045;50.042;14.432;2024-03-08T20:52:47;21.50;;;10.30;;
78716;SDS011;68045;50.042;14.432;2024-03-08T20:56:50;20.77;;;9.60;;
78716;SDS011;68045;50.042;14.432;2024-03-08T21:00:54;23.65;;;9.45;;
78716;SDS011;68045;50.042;14.432;2024-03-08T21:04:55;20.35;;;9.60;;
78716;SDS011;68045;50.042;14.432;2024-03-08T21:08:56;23.13;;;8.93;;
78716;SDS011;68045;50.042;14.432;2024-03-08T21:12:58;17.42;;;8.93;;
78716;SDS011;68045;50.042;14.432;2024-03-08T21:17:01;15.88;;;7.13;;
78716;SDS011;68045;50.042;14.432;2024-03-08T21:21:02;16.38;;;8.40;;
78716;SDS011;68045;50.042;14.432;2024-03-08T21:25:05;17.58;;;8.52;;
78716;SDS011;68045;50.042;14.432;2024-03-08T21:29:11;24.33;;;9.93;;
78716;SDS011;68045;50.042;14.432;2024-03-08T21:33:13;17.88;;;8.90;;
78716;SDS011;68045;50.042;14.432;2024-03-08T21:37:14;19.58;;;8.40;;
78716;SDS011;68045;50.042;14.432;2024-03-08T21:41:16;20.73;;;8.40;;
78716;SDS011;68045;50.042;14.432;2024-03-08T21:45:19;20.25;;;9.38;;
78716;SDS011;68045;50.042;14.432;2024-03-08T21:49:23;21.88;;;9.25;;
78716;SDS011;68045;50.042;14.432;2024-03-08T21:53:24;20.50;;;9.85;;
78716;SDS011;68045;50.042;14.432;2024-03-08T21:57:25;19.48;;;8.27;;
78716;SDS011;68045;50.042;14.432;2024-03-08T22:01:28;21.95;;;9.63;;
78716;SDS011;68045;50.042;14.432;2024-03-08T22:05:31;24.20;;;10.43;;
78716;SDS011;68045;50.042;14.432;2024-03-08T22:09:35;19.77;;;9.02;;
78716;SDS011;68045;50.042;14.432;2024-03-08T22:13:36;20.58;;;10.45;;
78716;SDS011;68045;50.042;14.432;2024-03-08T22:17:37;20.55;;;9.63;;
78716;SDS011;68045;50.042;14.432;2024-03-08T22:21:39;18.55;;;9.27;;
78716;SDS011;68045;50.042;14.432;2024-03-08T22:25:41;22.30;;;8.73;;
78716;SDS011;68045;50.042;14.432;2024-03-08T22:29:44;20.23;;;9.50;;
78716;SDS011;68045;50.042;14.432;2024-03-08T22:33:45;20.48;;;9.52;;
78716;SDS011;68045;50.042;14.432;2024-03-08T22:37:47;18.90;;;8.50;;
78716;SDS011;68045;50.042;14.432;2024-03-08T22:41:48;18.98;;;9.48;;
78716;SDS011;68045;50.042;14.432;2024-03-08T22:45:50;18.13;;;9.13;;
78716;SDS011;68045;50.042;14.432;2024-03-08T22:49:53;20.73;;;10.07;;
78716;SDS011;68045;50.042;14.432;2024-03-08T22:53:54;18.85;;;8.98;;
78716;SDS011;68045;50.042;14.432;2024-03-08T22:57:55;22.58;;;10.07;;
78716;SDS011;68045;50.042;14.432;2024-03-08T23:01:56;19.55;;;9.52;;
78716;SDS011;68045;50.042;14.432;2024-03-08T23:05:58;20.00;;;7.78;;
78716;SDS011;68045;50.042;14.432;2024-03-08T23:10:01;16.30;;;8.07;;
78716;SDS011;68045;50.042;14.432;2024-03-08T23:14:07;18.15;;;8.43;;
78716;SDS011;68045;50.042;14.432;2024-03-08T23:18:12;17.00;;;7.70;;
78716;SDS011;68045;50.042;14.432;2024-03-08T23:22:13;15.55;;;8.25;;
78716;SDS011;68045;50.042;14.432;2024-03-08T23:26:16;17.92;;;7.70;;
78716;SDS011;68045;50.042;14.432;2024-03-08T23:30:20;16.00;;;8.23;;
78716;SDS011;68045;50.042;14.432;2024-03-08T23:34:26;15.65;;;7.18;;
78716;SDS011;68045;50.042;14.432;2024-03-08T23:38:27;12.93;;;6.30;;
78716;SDS011;68045;50.042;14.432;2024-03-08T23:42:28;18.23;;;8.07;;
78716;SDS011;68045;50.042;14.432;2024-03-08T23:46:31;17.15;;;7.57;;
78716;SDS011;68045;50.042;14.432;2024-03-08T23:50:33;14.95;;;7.38;;
78716;SDS011;68045;50.042;14.432;2024-03-08T23:54:35;15.40;;;7.45;;
78716;SDS011;68045;50.042;14.432;2024-03-08T23:58:41;16.30;;;7.63;;
